sensor_id;sensor_type;location;lat;lon;timestamp;pressure;altitude;pressure_sealevel;temperature;humidity
36222;BME280;22266;52.340;4.962;2022-12-29T00:01:30;99805.59;;;10.00;89.47
36222;BME280;22266;52.340;4.962;2022-12-29T00:03:56;99797.94;;;10.03;89.52
36222;BME280;22266;52.340;4.962;2022-12-29T00:06:23;99786.53;;;10.08;89.06
36222;BME280;22266;52.340;4.962;2022-12-29T00:08:50;99786.72;;;10.13;88.77
36222;BME280;22266;52.340;4.962;2022-12-29T00:11:19;99772.66;;;10.11;88.38
36222;BME280;22266;52.340;4.962;2022-12-29T00:13:46;99772.41;;;10.19;88.00
36222;BME280;22266;52.340;4.962;2022-12-29T00:16:32;99770.38;;;10.14;87.85
36222;BME280;22266;52.340;4.962;2022-12-29T00:18:59;99770.78;;;10.11;87.84
36222;BME280;22266;52.340;4.962;2022-12-29T00:21:26;99753.84;;;10.11;88.11
36222;BME280;22266;52.340;4.962;2022-12-29T00:24:17;99753.44;;;10.07;88.04
36222;BME280;22266;52.340;4.962;2022-12-29T00:27:12;99752.19;;;10.10;87.61
36222;BME280;22266;52.340;4.962;2022-12-29T00:29:57;99741.00;;;10.13;87.19
36222;BME280;22266;52.340;4.962;2022-12-29T00:32:43;99736.84;;;10.17;86.97
36222;BME280;22266;52.340;4.962;2022-12-29T00:35:31;99733.69;;;10.20;87.10
36222;BME280;22266;52.340;4.962;2022-12-29T00:38:02;99732.44;;;10.23;86.59
36222;BME280;22266;52.340;4.962;2022-12-29T00:40:48;99728.31;;;10.27;86.34
36222;BME280;22266;52.340;4.962;2022-12-29T00:43:33;99723.97;;;10.26;86.36
36222;BME280;22266;52.340;4.962;2022-12-29T00:46:18;99712.81;;;10.22;86.34
36222;BME280;22266;52.340;4.962;2022-12-29T00:48:45;99705.97;;;10.26;85.74
36222;BME280;22266;52.340;4.962;2022-12-29T00:51:30;99703.53;;;10.18;86.06
36222;BME280;22266;52.340;4.962;2022-12-29T00:53:57;99696.50;;;10.17;86.25
36222;BME280;22266;52.340;4.962;2022-12-29T00:56:23;99688.59;;;10.22;85.85
36222;BME280;22266;52.340;4.962;2022-12-29T00:58:50;99688.78;;;10.21;85.70
36222;BME280;22266;52.340;4.962;2022-12-29T01:01:16;99688.78;;;10.27;85.60
36222;BME280;22266;52.340;4.962;2022-12-29T01:03:43;99686.84;;;10.34;85.38
36222;BME280;22266;52.340;4.962;2022-12-29T01:06:11;99693.88;;;10.35;84.90
36222;BME280;22266;52.340;4.962;2022-12-29T01:08:38;99682.69;;;10.38;84.93
36222;BME280;22266;52.340;4.962;2022-12-29T01:11:07;99685.38;;;10.38;84.72
36222;BME280;22266;52.340;4.962;2022-12-29T01:13:35;99666.97;;;10.35;84.79
36222;BME280;22266;52.340;4.962;2022-12-29T01:16:05;99661.00;;;10.33;84.62
36222;BME280;22266;52.340;4.962;2022-12-29T01:18:33;99661.59;;;10.35;84.62
36222;BME280;22266;52.340;4.962;2022-12-29T01:21:01;99662.94;;;10.26;84.92
36222;BME280;22266;52.340;4.962;2022-12-29T01:23:29;99680.28;;;10.24;85.73
36222;BME280;22266;52.340;4.962;2022-12-29T01:25:55;99661.53;;;10.17;85.49
36222;BME280;22266;52.340;4.962;2022-12-29T01:28:23;99661.69;;;10.22;85.38
36222;BME280;22266;52.340;4.962;2022-12-29T01:30:51;99680.28;;;10.24;85.45
36222;BME280;22266;52.340;4.962;2022-12-29T01:33:18;99678.25;;;10.26;85.39
36222;BME280;22266;52.340;4.962;2022-12-29T01:35:44;99666.22;;;10.28;85.12
36222;BME280;22266;52.340;4.962;2022-12-29T01:38:11;99676.38;;;10.26;85.78
36222;BME280;22266;52.340;4.962;2022-12-29T01:40:46;99672.06;;;10.25;85.38
36222;BME280;22266;52.340;4.962;2022-12-29T01:43:13;99663.13;;;10.25;85.59
36222;BME280;22266;52.340;4.962;2022-12-29T01:45:48;99681.97;;;10.25;85.73
36222;BME280;22266;52.340;4.962;2022-12-29T01:48:17;99678.03;;;10.27;85.68
36222;BME280;22266;52.340;4.962;2022-12-29T01:50:53;99697.38;;;10.11;86.34
36222;BME280;22266;52.340;4.962;2022-12-29T01:53:25;99688.72;;;10.09;86.03
36222;BME280;22266;52.340;4.962;2022-12-29T01:55:58;99700.72;;;10.06;86.33
36222;BME280;22266;52.340;4.962;2022-12-29T01:58:32;99689.16;;;10.06;85.84
36222;BME280;22266;52.340;4.962;2022-12-29T02:00:59;99687.88;;;10.08;85.76
36222;BME280;22266;52.340;4.962;2022-12-29T02:03:27;99680.41;;;10.10;85.79
36222;BME280;22266;52.340;4.962;2022-12-29T02:05:58;99687.59;;;10.16;85.13
36222;BME280;22266;52.340;4.962;2022-12-29T02:08:29;99694.97;;;10.28;84.48
36222;BME280;22266;52.340;4.962;2022-12-29T02:10:56;99690.47;;;10.22;84.53
36222;BME280;22266;52.340;4.962;2022-12-29T02:13:24;99683.66;;;10.19;84.60
36222;BME280;22266;52.340;4.962;2022-12-29T02:30:34;99697.91;;;10.20;84.45
36222;BME280;22266;52.340;4.962;2022-12-29T02:39:19;99694.63;;;10.18;83.51
36222;BME280;22266;52.340;4.962;2022-12-29T02:42:04;99695.03;;;10.21;83.55
36222;BME280;22266;52.340;4.962;2022-12-29T02:47:56;99681.19;;;10.18;83.51
36222;BME280;22266;52.340;4.962;2022-12-29T02:50:34;99686.78;;;10.16;83.76
36222;BME280;22266;52.340;4.962;2022-12-29T02:53:15;99679.97;;;10.13;83.89
36222;BME280;22266;52.340;4.962;2022-12-29T02:55:49;99670.03;;;10.14;83.96
36222;BME280;22266;52.340;4.962;2022-12-29T02:58:19;99678.69;;;10.16;83.91
36222;BME280;22266;52.340;4.962;2022-12-29T03:09:05;99692.41;;;10.08;83.87
36222;BME280;22266;52.340;4.962;2022-12-29T03:15:02;99694.28;;;9.82;85.07
36222;BME280;22266;52.340;4.962;2022-12-29T03:17:57;99698.00;;;9.81;84.86
36222;BME280;22266;52.340;4.962;2022-12-29T03:20:29;99695.91;;;9.83;84.62
36222;BME280;22266;52.340;4.962;2022-12-29T03:23:00;99704.63;;;9.79;84.84
36222;BME280;22266;52.340;4.962;2022-12-29T03:25:33;99702.38;;;9.76;84.48
36222;BME280;22266;52.340;4.962;2022-12-29T03:28:22;99714.13;;;9.81;84.87
36222;BME280;22266;52.340;4.962;2022-12-29T03:30:50;99699.41;;;9.84;85.21
36222;BME280;22266;52.340;4.962;2022-12-29T03:33:22;99693.41;;;9.88;84.97
36222;BME280;22266;52.340;4.962;2022-12-29T03:35:52;99696.72;;;9.84;84.91
36222;BME280;22266;52.340;4.962;2022-12-29T03:38:30;99688.63;;;9.90;84.35
36222;BME280;22266;52.340;4.962;2022-12-29T03:41:03;99691.56;;;9.89;84.17
36222;BME280;22266;52.340;4.962;2022-12-29T03:43:33;99689.56;;;9.78;83.89
36222;BME280;22266;52.340;4.962;2022-12-29T03:46:00;99675.94;;;9.73;83.56
36222;BME280;22266;52.340;4.962;2022-12-29T03:48:27;99677.56;;;9.80;83.58
36222;BME280;22266;52.340;4.962;2022-12-29T03:50:54;99677.91;;;9.84;83.38
36222;BME280;22266;52.340;4.962;2022-12-29T03:53:22;99675.47;;;9.82;82.99
36222;BME280;22266;52.340;4.962;2022-12-29T03:55:48;99685.78;;;9.85;82.86
36222;BME280;22266;52.340;4.962;2022-12-29T03:58:15;99677.50;;;9.87;82.52
36222;BME280;22266;52.340;4.962;2022-12-29T04:01:10;99683.09;;;9.85;82.27
36222;BME280;22266;52.340;4.962;2022-12-29T04:03:37;99685.16;;;9.83;82.21
36222;BME280;22266;52.340;4.962;2022-12-29T04:06:05;99693.22;;;9.83;82.41
36222;BME280;22266;52.340;4.962;2022-12-29T04:08:40;99696.97;;;9.82;82.23
36222;BME280;22266;52.340;4.962;2022-12-29T04:11:06;99699.22;;;9.85;81.86
36222;BME280;22266;52.340;4.962;2022-12-29T04:13:33;99697.59;;;9.84;81.99
36222;BME280;22266;52.340;4.962;2022-12-29T04:16:00;99698.78;;;9.88;81.13
36222;BME280;22266;52.340;4.962;2022-12-29T04:18:27;99698.13;;;9.93;81.21
36222;BME280;22266;52.340;4.962;2022-12-29T04:20:54;99699.22;;;9.85;80.78
36222;BME280;22266;52.340;4.962;2022-12-29T04:23:29;99705.84;;;9.83;81.12
36222;BME280;22266;52.340;4.962;2022-12-29T04:25:56;99698.59;;;9.83;81.17
36222;BME280;22266;52.340;4.962;2022-12-29T04:28:24;99694.69;;;9.79;80.65
36222;BME280;22266;52.340;4.962;2022-12-29T04:31:08;99703.59;;;9.80;80.62
36222;BME280;22266;52.340;4.962;2022-12-29T04:33:38;99698.81;;;9.82;79.87
36222;BME280;22266;52.340;4.962;2022-12-29T04:36:05;99708.19;;;9.73;79.78
36222;BME280;22266;52.340;4.962;2022-12-29T04:38:33;99709.22;;;9.72;79.54
36222;BME280;22266;52.340;4.962;2022-12-29T04:41:02;99707.31;;;9.79;79.57
36222;BME280;22266;52.340;4.962;2022-12-29T04:43:30;99712.69;;;9.79;79.51
36222;BME280;22266;52.340;4.962;2022-12-29T04:46:15;99700.06;;;9.79;78.88
36222;BME280;22266;52.340;4.962;2022-12-29T04:48:51;99699.88;;;9.81;78.98
36222;BME280;22266;52.340;4.962;2022-12-29T04:51:27;99702.16;;;9.77;78.83
36222;BME280;22266;52.340;4.962;2022-12-29T04:53:53;99705.94;;;9.70;78.39
36222;BME280;22266;52.340;4.962;2022-12-29T04:56:22;99714.09;;;9.56;78.74
36222;BME280;22266;52.340;4.962;2022-12-29T04:58:48;99711.59;;;9.55;78.77
36222;BME280;22266;52.340;4.962;2022-12-29T05:01:15;99716.78;;;9.56;78.99
36222;BME280;22266;52.340;4.962;2022-12-29T05:03:42;99713.63;;;9.59;78.40
36222;BME280;22266;52.340;4.962;2022-12-29T05:06:09;99715.91;;;9.56;78.81
36222;BME280;22266;52.340;4.962;2022-12-29T05:08:36;99725.69;;;9.50;78.46
36222;BME280;22266;52.340;4.962;2022-12-29T05:11:03;99723.22;;;9.49;78.86
36222;BME280;22266;52.340;4.962;2022-12-29T05:13:30;99711.75;;;9.60;79.14
36222;BME280;22266;52.340;4.962;2022-12-29T05:15:56;99718.19;;;9.59;79.08
36222;BME280;22266;52.340;4.962;2022-12-29T05:18:23;99725.03;;;9.55;79.34
36222;BME280;22266;52.340;4.962;2022-12-29T05:20:50;99723.56;;;9.59;78.91
36222;BME280;22266;52.340;4.962;2022-12-29T05:23:19;99720.06;;;9.52;79.40
36222;BME280;22266;52.340;4.962;2022-12-29T05:25:53;99736.19;;;9.58;79.32
36222;BME280;22266;52.340;4.962;2022-12-29T05:28:27;99720.88;;;9.59;79.83
36222;BME280;22266;52.340;4.962;2022-12-29T05:31:02;99743.00;;;9.61;79.51
36222;BME280;22266;52.340;4.962;2022-12-29T05:33:29;99733.31;;;9.53;79.75
36222;BME280;22266;52.340;4.962;2022-12-29T05:35:56;99734.94;;;9.61;79.36
36222;BME280;22266;52.340;4.962;2022-12-29T05:38:23;99749.38;;;9.60;79.83
36222;BME280;22266;52.340;4.962;2022-12-29T05:40:49;99749.59;;;9.58;80.07
36222;BME280;22266;52.340;4.962;2022-12-29T05:43:38;99741.78;;;9.57;79.58
36222;BME280;22266;52.340;4.962;2022-12-29T05:46:28;99769.66;;;9.56;79.93
36222;BME280;22266;52.340;4.962;2022-12-29T05:49:24;99759.78;;;9.50;79.88
36222;BME280;22266;52.340;4.962;2022-12-29T05:51:54;99765.56;;;9.53;79.99
36222;BME280;22266;52.340;4.962;2022-12-29T05:54:21;99756.66;;;9.53;80.41
36222;BME280;22266;52.340;4.962;2022-12-29T05:56:48;99750.25;;;9.54;80.47
36222;BME280;22266;52.340;4.962;2022-12-29T05:59:14;99762.28;;;9.45;80.90
36222;BME280;22266;52.340;4.962;2022-12-29T06:01:41;99755.25;;;9.44;80.86
36222;BME280;22266;52.340;4.962;2022-12-29T06:04:08;99747.59;;;9.47;81.41
36222;BME280;22266;52.340;4.962;2022-12-29T06:06:34;99759.56;;;9.51;80.81
36222;BME280;22266;52.340;4.962;2022-12-29T06:09:02;99766.38;;;9.54;80.47
36222;BME280;22266;52.340;4.962;2022-12-29T06:11:28;99752.75;;;9.49;81.11
36222;BME280;22266;52.340;4.962;2022-12-29T06:13:57;99762.88;;;9.47;81.32
36222;BME280;22266;52.340;4.962;2022-12-29T06:16:24;99776.94;;;9.49;80.96
36222;BME280;22266;52.340;4.962;2022-12-29T06:18:55;99774.91;;;9.44;81.52
36222;BME280;22266;52.340;4.962;2022-12-29T06:21:22;99773.03;;;9.45;81.31
36222;BME280;22266;52.340;4.962;2022-12-29T06:23:48;99774.91;;;9.44;81.18
36222;BME280;22266;52.340;4.962;2022-12-29T06:26:15;99803.81;;;9.49;80.93
36222;BME280;22266;52.340;4.962;2022-12-29T06:28:42;99779.28;;;9.32;81.13
36222;BME280;22266;52.340;4.962;2022-12-29T06:31:10;99773.28;;;9.30;80.81
36222;BME280;22266;52.340;4.962;2022-12-29T06:33:37;99795.19;;;9.33;80.60
36222;BME280;22266;52.340;4.962;2022-12-29T06:36:04;99790.41;;;9.35;80.66
36222;BME280;22266;52.340;4.962;2022-12-29T06:38:31;99798.84;;;9.39;80.55
36222;BME280;22266;52.340;4.962;2022-12-29T06:40:58;99797.41;;;9.43;79.66
36222;BME280;22266;52.340;4.962;2022-12-29T06:43:33;99799.50;;;9.41;80.16
36222;BME280;22266;52.340;4.962;2022-12-29T06:46:18;99793.72;;;9.37;79.88
36222;BME280;22266;52.340;4.962;2022-12-29T06:48:45;99796.63;;;9.36;79.40
36222;BME280;22266;52.340;4.962;2022-12-29T06:51:11;99800.53;;;9.33;79.73
36222;BME280;22266;52.340;4.962;2022-12-29T06:53:38;99804.28;;;9.32;79.38
36222;BME280;22266;52.340;4.962;2022-12-29T06:56:04;99802.41;;;9.33;79.65
36222;BME280;22266;52.340;4.962;2022-12-29T06:58:31;99802.38;;;9.39;79.69
36222;BME280;22266;52.340;4.962;2022-12-29T07:00:57;99799.25;;;9.43;79.58
36222;BME280;22266;52.340;4.962;2022-12-29T07:03:24;99783.38;;;9.34;79.29
36222;BME280;22266;52.340;4.962;2022-12-29T07:05:51;99787.94;;;9.34;78.84
36222;BME280;22266;52.340;4.962;2022-12-29T07:08:17;99791.63;;;9.39;79.03
36222;BME280;22266;52.340;4.962;2022-12-29T07:10:43;99797.63;;;9.35;78.25
36222;BME280;22266;52.340;4.962;2022-12-29T07:13:10;99798.47;;;9.35;78.56
36222;BME280;22266;52.340;4.962;2022-12-29T07:15:37;99789.38;;;9.36;77.87
36222;BME280;22266;52.340;4.962;2022-12-29T07:18:03;99802.19;;;9.34;78.19
36222;BME280;22266;52.340;4.962;2022-12-29T07:20:31;99792.31;;;9.28;77.66
36222;BME280;22266;52.340;4.962;2022-12-29T07:22:57;99797.03;;;9.33;77.51
36222;BME280;22266;52.340;4.962;2022-12-29T07:25:24;99802.41;;;9.33;78.16
36222;BME280;22266;52.340;4.962;2022-12-29T07:27:50;99802.81;;;9.30;77.27
36222;BME280;22266;52.340;4.962;2022-12-29T07:30:17;99803.25;;;9.27;77.31
36222;BME280;22266;52.340;4.962;2022-12-29T07:32:43;99801.16;;;9.35;77.28
36222;BME280;22266;52.340;4.962;2022-12-29T07:35:10;99810.66;;;9.38;76.71
36222;BME280;22266;52.340;4.962;2022-12-29T07:37:36;99799.31;;;9.36;76.63
36222;BME280;22266;52.340;4.962;2022-12-29T07:40:03;99809.59;;;9.39;76.50
36222;BME280;22266;52.340;4.962;2022-12-29T07:42:31;99807.78;;;9.33;76.59
36222;BME280;22266;52.340;4.962;2022-12-29T07:44:58;99806.34;;;9.30;76.56
36222;BME280;22266;52.340;4.962;2022-12-29T07:47:29;99812.56;;;9.24;76.51
36222;BME280;22266;52.340;4.962;2022-12-29T07:49:56;99810.69;;;9.25;76.92
36222;BME280;22266;52.340;4.962;2022-12-29T07:52:22;99813.34;;;9.38;76.46
36222;BME280;22266;52.340;4.962;2022-12-29T07:54:49;99813.91;;;9.47;76.46
36222;BME280;22266;52.340;4.962;2022-12-29T07:57:15;99811.22;;;9.47;75.88
36222;BME280;22266;52.340;4.962;2022-12-29T07:59:42;99815.78;;;9.46;76.11
36222;BME280;22266;52.340;4.962;2022-12-29T08:02:11;99827.19;;;9.35;76.70
36222;BME280;22266;52.340;4.962;2022-12-29T08:04:38;99825.53;;;9.27;77.95
36222;BME280;22266;52.340;4.962;2022-12-29T08:07:05;99819.38;;;9.20;78.57
36222;BME280;22266;52.340;4.962;2022-12-29T08:09:31;99819.56;;;9.19;79.21
36222;BME280;22266;52.340;4.962;2022-12-29T08:11:57;99818.34;;;9.21;79.40
36222;BME280;22266;52.340;4.962;2022-12-29T08:14:24;99825.78;;;9.19;79.89
36222;BME280;22266;52.340;4.962;2022-12-29T08:16:50;99822.72;;;9.09;80.36
36222;BME280;22266;52.340;4.962;2022-12-29T08:19:17;99824.97;;;9.12;80.25
36222;BME280;22266;52.340;4.962;2022-12-29T08:21:43;99821.84;;;9.15;80.50
36222;BME280;22266;52.340;4.962;2022-12-29T08:24:10;99825.41;;;9.15;81.45
36222;BME280;22266;52.340;4.962;2022-12-29T08:26:36;99813.56;;;9.23;81.39
36222;BME280;22266;52.340;4.962;2022-12-29T08:29:03;99811.53;;;9.25;81.20
36222;BME280;22266;52.340;4.962;2022-12-29T08:31:29;99820.84;;;9.16;81.13
36222;BME280;22266;52.340;4.962;2022-12-29T08:33:56;99818.16;;;9.09;81.70
36222;BME280;22266;52.340;4.962;2022-12-29T08:36:22;99819.41;;;9.07;81.43
36222;BME280;22266;52.340;4.962;2022-12-29T08:38:49;99828.06;;;9.02;81.74
36222;BME280;22266;52.340;4.962;2022-12-29T08:41:15;99829.75;;;8.97;82.00
36222;BME280;22266;52.340;4.962;2022-12-29T08:43:46;99817.16;;;8.90;82.14
36222;BME280;22266;52.340;4.962;2022-12-29T08:46:13;99818.19;;;8.89;82.56
36222;BME280;22266;52.340;4.962;2022-12-29T08:48:39;99827.69;;;8.85;82.94
36222;BME280;22266;52.340;4.962;2022-12-29T08:51:06;99827.69;;;8.85;82.92
36222;BME280;22266;52.340;4.962;2022-12-29T08:53:34;99836.38;;;8.87;83.24
36222;BME280;22266;52.340;4.962;2022-12-29T08:56:01;99841.31;;;8.84;83.11
36222;BME280;22266;52.340;4.962;2022-12-29T08:58:39;99836.78;;;8.78;83.71
36222;BME280;22266;52.340;4.962;2022-12-29T09:01:06;99846.06;;;8.82;83.88
36222;BME280;22266;52.340;4.962;2022-12-29T09:03:33;99850.59;;;8.81;83.98
36222;BME280;22266;52.340;4.962;2022-12-29T09:06:19;99839.47;;;8.78;84.04
36222;BME280;22266;52.340;4.962;2022-12-29T09:08:46;99851.00;;;8.78;84.33
36222;BME280;22266;52.340;4.962;2022-12-29T09:11:21;99862.78;;;8.71;85.29
36222;BME280;22266;52.340;4.962;2022-12-29T09:13:50;99866.09;;;8.73;85.36
36222;BME280;22266;52.340;4.962;2022-12-29T09:16:17;99865.69;;;8.76;85.47
36222;BME280;22266;52.340;4.962;2022-12-29T09:18:44;99877.66;;;8.80;84.77
36222;BME280;22266;52.340;4.962;2022-12-29T09:21:11;99886.94;;;8.77;84.81
36222;BME280;22266;52.340;4.962;2022-12-29T09:23:38;99879.53;;;8.79;85.40
36222;BME280;22266;52.340;4.962;2022-12-29T09:26:05;99895.00;;;8.84;85.54
36222;BME280;22266;52.340;4.962;2022-12-29T09:28:31;99895.59;;;8.86;85.10
36222;BME280;22266;52.340;4.962;2022-12-29T09:30:59;99896.44;;;8.86;85.60
36222;BME280;22266;52.340;4.962;2022-12-29T09:33:25;99906.34;;;8.79;85.34
36222;BME280;22266;52.340;4.962;2022-12-29T09:35:55;99911.09;;;8.84;85.69
36222;BME280;22266;52.340;4.962;2022-12-29T09:38:22;99912.13;;;8.89;85.63
36222;BME280;22266;52.340;4.962;2022-12-29T09:40:55;99922.06;;;8.96;85.42
36222;BME280;22266;52.340;4.962;2022-12-29T09:46:22;99924.31;;;8.99;85.61
36222;BME280;22266;52.340;4.962;2022-12-29T09:48:55;99926.78;;;8.94;85.97
36222;BME280;22266;52.340;4.962;2022-12-29T09:51:26;99931.34;;;9.00;86.13
36222;BME280;22266;52.340;4.962;2022-12-29T09:53:57;99946.38;;;9.07;85.73
36222;BME280;22266;52.340;4.962;2022-12-29T09:56:26;99948.25;;;9.07;85.91
36222;BME280;22266;52.340;4.962;2022-12-29T09:58:55;99966.03;;;9.08;85.74
36222;BME280;22266;52.340;4.962;2022-12-29T10:01:53;99961.69;;;9.07;85.77
36222;BME280;22266;52.340;4.962;2022-12-29T10:04:27;99963.13;;;9.09;85.98
36222;BME280;22266;52.340;4.962;2022-12-29T10:06:59;99969.34;;;9.16;85.59
36222;BME280;22266;52.340;4.962;2022-12-29T10:10:12;99983.38;;;9.05;85.83
36222;BME280;22266;52.340;4.962;2022-12-29T10:13:00;99993.09;;;9.13;86.13
36222;BME280;22266;52.340;4.962;2022-12-29T10:15:52;99981.72;;;9.18;85.84
36222;BME280;22266;52.340;4.962;2022-12-29T10:18:50;99991.22;;;9.27;86.11
36222;BME280;22266;52.340;4.962;2022-12-29T10:21:33;99994.72;;;9.27;85.62
36222;BME280;22266;52.340;4.962;2022-12-29T10:24:07;100002.38;;;9.30;85.60
36222;BME280;22266;52.340;4.962;2022-12-29T10:26:42;100017.44;;;9.31;85.58
36222;BME280;22266;52.340;4.962;2022-12-29T10:29:16;100022.41;;;9.34;85.26
36222;BME280;22266;52.340;4.962;2022-12-29T10:31:50;100021.78;;;9.39;85.00
36222;BME280;22266;52.340;4.962;2022-12-29T10:34:43;100018.09;;;9.40;85.06
36222;BME280;22266;52.340;4.962;2022-12-29T10:38:01;100026.56;;;9.37;84.88
36222;BME280;22266;52.340;4.962;2022-12-29T10:40:22;100028.63;;;9.48;85.41
36222;BME280;22266;52.340;4.962;2022-12-29T10:42:56;100042.88;;;9.42;84.66
36222;BME280;22266;52.340;4.962;2022-12-29T10:45:27;100052.59;;;9.43;84.96
36222;BME280;22266;52.340;4.962;2022-12-29T10:48:09;100051.75;;;9.43;84.43
36222;BME280;22266;52.340;4.962;2022-12-29T10:50:38;100048.66;;;9.39;84.81
36222;BME280;22266;52.340;4.962;2022-12-29T10:53:17;100056.09;;;9.44;84.04
36222;BME280;22266;52.340;4.962;2022-12-29T10:55:45;100044.94;;;9.47;84.08
36222;BME280;22266;52.340;4.962;2022-12-29T10:58:13;100065.63;;;9.46;83.84
36222;BME280;22266;52.340;4.962;2022-12-29T11:00:51;100062.72;;;9.54;83.20
36222;BME280;22266;52.340;4.962;2022-12-29T11:03:34;100066.66;;;9.58;83.07
36222;BME280;22266;52.340;4.962;2022-12-29T11:06:24;100073.25;;;9.56;82.71
36222;BME280;22266;52.340;4.962;2022-12-29T11:08:57;100081.72;;;9.46;81.92
36222;BME280;22266;52.340;4.962;2022-12-29T11:11:32;100085.47;;;9.45;81.63
36222;BME280;22266;52.340;4.962;2022-12-29T11:14:48;100094.13;;;9.47;81.27
36222;BME280;22266;52.340;4.962;2022-12-29T11:17:00;100087.31;;;9.45;80.96
36222;BME280;22266;52.340;4.962;2022-12-29T11:19:32;100086.47;;;9.51;80.35
36222;BME280;22266;52.340;4.962;2022-12-29T11:22:23;100110.03;;;9.55;79.75
36222;BME280;22266;52.340;4.962;2022-12-29T11:24:52;100102.81;;;9.49;79.82
36222;BME280;22266;52.340;4.962;2022-12-29T11:27:25;100113.75;;;9.48;80.38
36222;BME280;22266;52.340;4.962;2022-12-29T11:29:53;100107.97;;;9.51;80.32
36222;BME280;22266;52.340;4.962;2022-12-29T11:32:23;100125.94;;;9.44;80.38
36222;BME280;22266;52.340;4.962;2022-12-29T11:34:54;100121.00;;;9.40;80.72
36222;BME280;22266;52.340;4.962;2022-12-29T11:40:16;100127.59;;;9.51;80.53
36222;BME280;22266;52.340;4.962;2022-12-29T11:42:51;100127.19;;;9.48;80.81
36222;BME280;22266;52.340;4.962;2022-12-29T11:45:20;100140.22;;;9.51;80.84
36222;BME280;22266;52.340;4.962;2022-12-29T11:47:50;100129.28;;;9.52;80.98
36222;BME280;22266;52.340;4.962;2022-12-29T11:50:21;100139.41;;;9.57;80.78
36222;BME280;22266;52.340;4.962;2022-12-29T11:52:50;100153.66;;;9.64;80.37
36222;BME280;22266;52.340;4.962;2022-12-29T11:55:25;100157.78;;;9.53;79.56
36222;BME280;22266;52.340;4.962;2022-12-29T11:57:55;100155.69;;;9.42;78.77
36222;BME280;22266;52.340;4.962;2022-12-29T12:00:24;100169.13;;;9.42;78.58
36222;BME280;22266;52.340;4.962;2022-12-29T12:03:17;100169.59;;;9.52;78.81
36222;BME280;22266;52.340;4.962;2022-12-29T12:05:50;100166.03;;;9.45;78.48
36222;BME280;22266;52.340;4.962;2022-12-29T12:08:33;100162.72;;;9.43;78.22
36222;BME280;22266;52.340;4.962;2022-12-29T12:11:10;100164.78;;;9.48;77.55
36222;BME280;22266;52.340;4.962;2022-12-29T12:13:58;100161.94;;;9.62;77.35
36222;BME280;22266;52.340;4.962;2022-12-29T12:16:39;100172.25;;;9.59;77.62
36222;BME280;22266;52.340;4.962;2022-12-29T12:19:20;100176.56;;;9.47;77.51
36222;BME280;22266;52.340;4.962;2022-12-29T12:21:57;100183.00;;;9.52;77.05
36222;BME280;22266;52.340;4.962;2022-12-29T12:24:35;100176.41;;;9.48;76.18
36222;BME280;22266;52.340;4.962;2022-12-29T12:30:05;100176.78;;;9.45;76.48
36222;BME280;22266;52.340;4.962;2022-12-29T12:35:23;100185.88;;;9.44;76.17
36222;BME280;22266;52.340;4.962;2022-12-29T12:38:12;100177.22;;;9.49;75.84
36222;BME280;22266;52.340;4.962;2022-12-29T12:41:01;100183.00;;;9.46;75.84
36222;BME280;22266;52.340;4.962;2022-12-29T12:43:41;100184.84;;;9.52;74.93
36222;BME280;22266;52.340;4.962;2022-12-29T12:49:16;100197.91;;;9.61;74.77
36222;BME280;22266;52.340;4.962;2022-12-29T13:00:37;100204.94;;;9.62;73.48
36222;BME280;22266;52.340;4.962;2022-12-29T13:03:41;100201.22;;;9.57;74.24
36222;BME280;22266;52.340;4.962;2022-12-29T13:06:36;100199.78;;;9.61;74.09
36222;BME280;22266;52.340;4.962;2022-12-29T13:09:37;100207.84;;;9.74;74.05
36222;BME280;22266;52.340;4.962;2022-12-29T13:12:23;100205.38;;;9.79;73.40
36222;BME280;22266;52.340;4.962;2022-12-29T13:15:05;100215.09;;;9.74;73.81
36222;BME280;22266;52.340;4.962;2022-12-29T13:18:04;100214.25;;;9.73;74.24
36222;BME280;22266;52.340;4.962;2022-12-29T13:23:36;100224.56;;;9.63;75.39
36222;BME280;22266;52.340;4.962;2022-12-29T13:26:32;100222.28;;;9.60;75.83
36222;BME280;22266;52.340;4.962;2022-12-29T13:29:15;100228.47;;;9.54;75.57
36222;BME280;22266;52.340;4.962;2022-12-29T13:32:21;100230.72;;;9.50;75.39
36222;BME280;22266;52.340;4.962;2022-12-29T13:35:10;100231.38;;;9.59;74.66
36222;BME280;22266;52.340;4.962;2022-12-29T13:37:49;100235.50;;;9.55;74.75
36222;BME280;22266;52.340;4.962;2022-12-29T13:40:22;100223.53;;;9.64;74.06
36222;BME280;22266;52.340;4.962;2022-12-29T13:42:51;100231.81;;;9.76;74.14
36222;BME280;22266;52.340;4.962;2022-12-29T13:45:22;100231.03;;;9.82;74.42
36222;BME280;22266;52.340;4.962;2022-12-29T13:50:37;100225.41;;;9.70;74.46
36222;BME280;22266;52.340;4.962;2022-12-29T13:55:50;100225.22;;;9.78;74.18
36222;BME280;22266;52.340;4.962;2022-12-29T14:01:02;100220.66;;;9.72;74.72
36222;BME280;22266;52.340;4.962;2022-12-29T14:06:27;100217.59;;;9.82;73.80
36222;BME280;22266;52.340;4.962;2022-12-29T14:08:57;100229.13;;;9.76;74.02
36222;BME280;22266;52.340;4.962;2022-12-29T14:11:33;100227.69;;;9.66;74.81
36222;BME280;22266;52.340;4.962;2022-12-29T14:14:16;100227.88;;;9.65;74.57
36222;BME280;22266;52.340;4.962;2022-12-29T14:16:45;100219.41;;;9.68;74.70
36222;BME280;22266;52.340;4.962;2022-12-29T14:19:26;100221.50;;;9.73;74.75
36222;BME280;22266;52.340;4.962;2022-12-29T14:22:01;100224.38;;;9.71;74.82
36222;BME280;22266;52.340;4.962;2022-12-29T14:29:48;100228.50;;;9.67;75.66
36222;BME280;22266;52.340;4.962;2022-12-29T14:34:58;100232.66;;;9.76;75.58
36222;BME280;22266;52.340;4.962;2022-12-29T14:40:08;100241.94;;;9.67;75.90
36222;BME280;22266;52.340;4.962;2022-12-29T14:42:41;100239.66;;;9.64;76.45
36222;BME280;22266;52.340;4.962;2022-12-29T14:47:44;100249.38;;;9.65;76.60
36222;BME280;22266;52.340;4.962;2022-12-29T14:53:01;100241.25;;;9.45;76.93
36222;BME280;22266;52.340;4.962;2022-12-29T14:55:44;100231.94;;;9.41;77.15
36222;BME280;22266;52.340;4.962;2022-12-29T14:58:18;100240.81;;;9.35;77.28
36222;BME280;22266;52.340;4.962;2022-12-29T15:00:47;100261.28;;;9.36;77.32
36222;BME280;22266;52.340;4.962;2022-12-29T15:03:21;100244.47;;;9.27;78.01